Strona główna
METAR-TAF:

METAR-TAF

Lotnisko :

Port lotniczy Pau Pyrénées

Pau, Francja

Szerokość geograficzna: 43-23N, Długość geograficzna: 000-25W, wysokość: 188 m

Aktualna obserwacja pogody

Raport powstał 24 minut temu, godzina 08:30 UTC
Wiatr 2 kt z kierunków zmiennych
Temperatura 25°C
Wilgotność 57%
Ciśnienie 1024 hPa
Widzialność 10 km lub więcej
Brak chmur poniżej 1500 m i brak chmur cumulonimbus

METAR: LFBP 280830Z AUTO VRB02KT CAVOK 25/16 Q1024 NOSIG

czas: 10:54 (08:54 UTC)

Prognoza

Raport powstał 3 godziny i 54 minut temu, godzina 05:00 UTC
Prognoza ważna od 28 godzina 06 UTC do 29 godzina 06 UTC
Wiatr 6 kt od wschodnio-północny wschód
Widzialność 10 km lub więcej
Brak chmur poniżej 1500 m i brak chmur cumulonimbus

TAF: LFBP 280500Z 2806/2906 06006KT CAVOK

Obserwacja i prognoza pogody dla ponad 4000 lotnisk (raport METAR i TAF).

Dostępne stacje oznaczono żółtymi i czerwonymi punktami na mapie.

Najedź kursorem aby zobaczyć nazwę stacji.

Kliknij aby zobaczyć obserwacje i prognozy pogody.

Aby zmienić mapę: kliknij na zielony przycisk z czarnym krzyżykiem, aby powiększyć; na zielony przycisk z myślnikiem, aby pomniejszyć; na zielone strzałki, aby przejść do map sąsiednich.


METAR-TAF: